sensor_id;sensor_type;location;lat;lon;timestamp;P1;durP1;ratioP1;P2;durP2;ratioP2
85104;SDS011;75457;53.198;45.008;2024-03-02T00:02:41;13.95;;;7.60;;
85104;SDS011;75457;53.198;45.008;2024-03-02T00:05:07;13.20;;;7.57;;
85104;SDS011;75457;53.198;45.008;2024-03-02T00:07:35;13.45;;;7.65;;
85104;SDS011;75457;53.198;45.008;2024-03-02T00:10:02;13.65;;;8.18;;
85104;SDS011;75457;53.198;45.008;2024-03-02T00:12:33;16.92;;;8.10;;
85104;SDS011;75457;53.198;45.008;2024-03-02T00:17:24;13.50;;;8.02;;
85104;SDS011;75457;53.198;45.008;2024-03-02T00:22:16;11.43;;;8.50;;
85104;SDS011;75457;53.198;45.008;2024-03-02T00:27:07;18.00;;;8.43;;
85104;SDS011;75457;53.198;45.008;2024-03-02T00:29:37;13.82;;;7.93;;
85104;SDS011;75457;53.198;45.008;2024-03-02T00:32:06;13.20;;;7.63;;
85104;SDS011;75457;53.198;45.008;2024-03-02T00:34:37;12.02;;;8.65;;
85104;SDS011;75457;53.198;45.008;2024-03-02T00:39:29;15.23;;;8.70;;
85104;SDS011;75457;53.198;45.008;2024-03-02T00:41:55;12.82;;;8.63;;
85104;SDS011;75457;53.198;45.008;2024-03-02T00:46:50;15.98;;;10.05;;
85104;SDS011;75457;53.198;45.008;2024-03-02T00:51:46;16.02;;;9.05;;
85104;SDS011;75457;53.198;45.008;2024-03-02T00:54:14;15.32;;;8.98;;
85104;SDS011;75457;53.198;45.008;2024-03-02T00:56:40;12.60;;;8.88;;
85104;SDS011;75457;53.198;45.008;2024-03-02T00:59:07;14.95;;;9.73;;
85104;SDS011;75457;53.198;45.008;2024-03-02T01:03:58;13.17;;;7.60;;
85104;SDS011;75457;53.198;45.008;2024-03-02T01:08:49;15.38;;;8.93;;
85104;SDS011;75457;53.198;45.008;2024-03-02T01:13:41;17.10;;;8.95;;
85104;SDS011;75457;53.198;45.008;2024-03-02T01:16:06;17.48;;;8.80;;
85104;SDS011;75457;53.198;45.008;2024-03-02T01:20:57;15.37;;;9.63;;
85104;SDS011;75457;53.198;45.008;2024-03-02T01:23:23;18.10;;;10.43;;
85104;SDS011;75457;53.198;45.008;2024-03-02T01:28:16;22.35;;;10.93;;
85104;SDS011;75457;53.198;45.008;2024-03-02T01:30:41;22.33;;;11.70;;
85104;SDS011;75457;53.198;45.008;2024-03-02T01:33:07;23.33;;;12.52;;
85104;SDS011;75457;53.198;45.008;2024-03-02T01:35:33;27.80;;;12.32;;
85104;SDS011;75457;53.198;45.008;2024-03-02T01:37:58;25.50;;;10.90;;
85104;SDS011;75457;53.198;45.008;2024-03-02T01:42:49;22.97;;;12.50;;
85104;SDS011;75457;53.198;45.008;2024-03-02T01:47:42;32.97;;;14.00;;
85104;SDS011;75457;53.198;45.008;2024-03-02T01:52:32;30.67;;;13.13;;
85104;SDS011;75457;53.198;45.008;2024-03-02T01:57:23;30.27;;;13.33;;
85104;SDS011;75457;53.198;45.008;2024-03-02T02:02:16;26.27;;;12.02;;
85104;SDS011;75457;53.198;45.008;2024-03-02T02:04:41;27.83;;;14.23;;
85104;SDS011;75457;53.198;45.008;2024-03-02T02:09:32;32.43;;;14.10;;
85104;SDS011;75457;53.198;45.008;2024-03-02T02:14:23;31.13;;;15.68;;
85104;SDS011;75457;53.198;45.008;2024-03-02T02:19:16;36.42;;;15.77;;
85104;SDS011;75457;53.198;45.008;2024-03-02T02:21:43;26.83;;;13.90;;
85104;SDS011;75457;53.198;45.008;2024-03-02T02:24:09;33.97;;;15.38;;
85104;SDS011;75457;53.198;45.008;2024-03-02T02:29:00;30.97;;;14.77;;
85104;SDS011;75457;53.198;45.008;2024-03-02T02:33:50;35.23;;;15.97;;
85104;SDS011;75457;53.198;45.008;2024-03-02T02:38:44;34.73;;;16.77;;
85104;SDS011;75457;53.198;45.008;2024-03-02T02:41:11;36.65;;;17.38;;
85104;SDS011;75457;53.198;45.008;2024-03-02T02:46:02;35.43;;;14.77;;
85104;SDS011;75457;53.198;45.008;2024-03-02T02:50:53;41.87;;;16.97;;
85104;SDS011;75457;53.198;45.008;2024-03-02T02:55:45;31.33;;;15.18;;
85104;SDS011;75457;53.198;45.008;2024-03-02T02:58:11;32.95;;;14.45;;
85104;SDS011;75457;53.198;45.008;2024-03-02T03:00:37;34.72;;;17.33;;
85104;SDS011;75457;53.198;45.008;2024-03-02T03:05:27;37.30;;;16.08;;
85104;SDS011;75457;53.198;45.008;2024-03-02T03:10:18;36.83;;;16.83;;
85104;SDS011;75457;53.198;45.008;2024-03-02T03:15:11;35.92;;;16.67;;
85104;SDS011;75457;53.198;45.008;2024-03-02T03:17:36;38.80;;;17.42;;
85104;SDS011;75457;53.198;45.008;2024-03-02T03:22:28;36.47;;;17.55;;
85104;SDS011;75457;53.198;45.008;2024-03-02T03:27:18;36.33;;;15.60;;
85104;SDS011;75457;53.198;45.008;2024-03-02T03:29:45;43.67;;;17.35;;
85104;SDS011;75457;53.198;45.008;2024-03-02T03:32:11;35.92;;;17.38;;
85104;SDS011;75457;53.198;45.008;2024-03-02T03:34:36;37.03;;;16.08;;
85104;SDS011;75457;53.198;45.008;2024-03-02T03:37:02;41.88;;;17.88;;
85104;SDS011;75457;53.198;45.008;2024-03-02T03:41:53;45.57;;;18.00;;
85104;SDS011;75457;53.198;45.008;2024-03-02T03:44:19;40.45;;;17.13;;
85104;SDS011;75457;53.198;45.008;2024-03-02T03:49:11;37.53;;;14.98;;
85104;SDS011;75457;53.198;45.008;2024-03-02T03:51:36;43.95;;;20.05;;
85104;SDS011;75457;53.198;45.008;2024-03-02T03:54:02;42.33;;;18.10;;
85104;SDS011;75457;53.198;45.008;2024-03-02T03:56:28;39.30;;;16.98;;
85104;SDS011;75457;53.198;45.008;2024-03-02T04:01:18;42.67;;;17.02;;
85104;SDS011;75457;53.198;45.008;2024-03-02T04:06:11;40.78;;;17.40;;
85104;SDS011;75457;53.198;45.008;2024-03-02T04:08:36;39.25;;;17.90;;
85104;SDS011;75457;53.198;45.008;2024-03-02T04:13:27;37.67;;;16.52;;
85104;SDS011;75457;53.198;45.008;2024-03-02T04:18:18;41.77;;;16.87;;
85104;SDS011;75457;53.198;45.008;2024-03-02T04:23:10;39.45;;;16.05;;
85104;SDS011;75457;53.198;45.008;2024-03-02T04:28:01;40.33;;;16.75;;
85104;SDS011;75457;53.198;45.008;2024-03-02T04:32:52;43.27;;;16.70;;
85104;SDS011;75457;53.198;45.008;2024-03-02T04:37:44;39.20;;;17.23;;
85104;SDS011;75457;53.198;45.008;2024-03-02T04:40:10;39.63;;;17.10;;
85104;SDS011;75457;53.198;45.008;2024-03-02T04:42:36;38.97;;;17.60;;
85104;SDS011;75457;53.198;45.008;2024-03-02T04:45:02;40.60;;;17.38;;
85104;SDS011;75457;53.198;45.008;2024-03-02T04:47:27;43.15;;;17.23;;
85104;SDS011;75457;53.198;45.008;2024-03-02T04:52:18;38.33;;;17.48;;
85104;SDS011;75457;53.198;45.008;2024-03-02T04:57:11;37.05;;;16.73;;
85104;SDS011;75457;53.198;45.008;2024-03-02T04:59:36;42.83;;;17.00;;
85104;SDS011;75457;53.198;45.008;2024-03-02T05:04:27;40.27;;;17.90;;
85104;SDS011;75457;53.198;45.008;2024-03-02T05:06:53;35.47;;;14.68;;
85104;SDS011;75457;53.198;45.008;2024-03-02T05:09:18;39.08;;;17.45;;
85104;SDS011;75457;53.198;45.008;2024-03-02T05:14:10;37.60;;;16.05;;
85104;SDS011;75457;53.198;45.008;2024-03-02T05:16:36;35.50;;;16.33;;
85104;SDS011;75457;53.198;45.008;2024-03-02T05:21:27;34.33;;;15.52;;
85104;SDS011;75457;53.198;45.008;2024-03-02T05:26:18;37.83;;;15.77;;
85104;SDS011;75457;53.198;45.008;2024-03-02T05:31:10;31.05;;;13.25;;
85104;SDS011;75457;53.198;45.008;2024-03-02T05:33:37;38.50;;;15.73;;
85104;SDS011;75457;53.198;45.008;2024-03-02T05:36:03;33.58;;;15.95;;
85104;SDS011;75457;53.198;45.008;2024-03-02T05:38:29;38.45;;;16.17;;
85104;SDS011;75457;53.198;45.008;2024-03-02T05:43:20;36.73;;;15.50;;
85104;SDS011;75457;53.198;45.008;2024-03-02T05:48:12;36.58;;;14.20;;
85104;SDS011;75457;53.198;45.008;2024-03-02T05:53:03;31.88;;;13.75;;
85104;SDS011;75457;53.198;45.008;2024-03-02T05:55:29;31.38;;;13.82;;
85104;SDS011;75457;53.198;45.008;2024-03-02T05:57:54;33.17;;;13.68;;
85104;SDS011;75457;53.198;45.008;2024-03-02T06:00:20;32.28;;;14.15;;
85104;SDS011;75457;53.198;45.008;2024-03-02T06:02:47;33.08;;;14.30;;
85104;SDS011;75457;53.198;45.008;2024-03-02T06:05:12;36.08;;;14.18;;
85104;SDS011;75457;53.198;45.008;2024-03-02T06:10:03;33.77;;;13.93;;
85104;SDS011;75457;53.198;45.008;2024-03-02T06:12:30;30.20;;;13.43;;
85104;SDS011;75457;53.198;45.008;2024-03-02T06:14:56;32.05;;;14.65;;
85104;SDS011;75457;53.198;45.008;2024-03-02T06:17:22;31.50;;;14.32;;
85104;SDS011;75457;53.198;45.008;2024-03-02T06:19:48;34.15;;;15.65;;
85104;SDS011;75457;53.198;45.008;2024-03-02T06:22:14;29.20;;;13.52;;
85104;SDS011;75457;53.198;45.008;2024-03-02T06:24:39;34.25;;;15.68;;
85104;SDS011;75457;53.198;45.008;2024-03-02T06:27:05;31.95;;;14.93;;
85104;SDS011;75457;53.198;45.008;2024-03-02T06:29:32;30.00;;;15.02;;
85104;SDS011;75457;53.198;45.008;2024-03-02T06:31:57;33.33;;;16.20;;
85104;SDS011;75457;53.198;45.008;2024-03-02T06:34:23;34.03;;;14.73;;
85104;SDS011;75457;53.198;45.008;2024-03-02T06:36:50;36.05;;;14.52;;
85104;SDS011;75457;53.198;45.008;2024-03-02T06:39:15;38.80;;;15.73;;
85104;SDS011;75457;53.198;45.008;2024-03-02T06:41:41;37.38;;;15.32;;
85104;SDS011;75457;53.198;45.008;2024-03-02T06:44:07;34.35;;;15.75;;
85104;SDS011;75457;53.198;45.008;2024-03-02T06:46:32;35.88;;;14.43;;
85104;SDS011;75457;53.198;45.008;2024-03-02T06:48:58;36.20;;;14.80;;
85104;SDS011;75457;53.198;45.008;2024-03-02T06:51:23;35.78;;;15.55;;
85104;SDS011;75457;53.198;45.008;2024-03-02T06:53:50;36.22;;;16.02;;
85104;SDS011;75457;53.198;45.008;2024-03-02T06:56:16;41.65;;;14.23;;
85104;SDS011;75457;53.198;45.008;2024-03-02T06:58:41;49.70;;;16.20;;
85104;SDS011;75457;53.198;45.008;2024-03-02T07:01:07;33.90;;;15.13;;
85104;SDS011;75457;53.198;45.008;2024-03-02T07:03:32;36.47;;;14.40;;
85104;SDS011;75457;53.198;45.008;2024-03-02T07:05:58;36.17;;;15.77;;
85104;SDS011;75457;53.198;45.008;2024-03-02T07:08:23;36.88;;;15.00;;
85104;SDS011;75457;53.198;45.008;2024-03-02T07:10:52;34.72;;;14.05;;
85104;SDS011;75457;53.198;45.008;2024-03-02T07:13:17;36.42;;;14.85;;
85104;SDS011;75457;53.198;45.008;2024-03-02T07:15:43;36.95;;;14.40;;
85104;SDS011;75457;53.198;45.008;2024-03-02T07:18:08;37.58;;;14.60;;
85104;SDS011;75457;53.198;45.008;2024-03-02T07:20:34;34.85;;;14.02;;
85104;SDS011;75457;53.198;45.008;2024-03-02T07:22:59;38.60;;;13.90;;
85104;SDS011;75457;53.198;45.008;2024-03-02T07:25:25;34.30;;;14.43;;
85104;SDS011;75457;53.198;45.008;2024-03-02T07:27:52;36.88;;;15.75;;
85104;SDS011;75457;53.198;45.008;2024-03-02T07:30:18;34.17;;;15.73;;
85104;SDS011;75457;53.198;45.008;2024-03-02T07:32:43;44.45;;;16.02;;
85104;SDS011;75457;53.198;45.008;2024-03-02T07:35:09;34.95;;;14.77;;
85104;SDS011;75457;53.198;45.008;2024-03-02T07:37:34;36.03;;;14.82;;
85104;SDS011;75457;53.198;45.008;2024-03-02T07:40:00;39.53;;;15.60;;
85104;SDS011;75457;53.198;45.008;2024-03-02T07:42:25;33.53;;;14.25;;
85104;SDS011;75457;53.198;45.008;2024-03-02T07:44:52;33.90;;;15.27;;
85104;SDS011;75457;53.198;45.008;2024-03-02T07:47:18;32.40;;;14.27;;
85104;SDS011;75457;53.198;45.008;2024-03-02T07:49:44;35.83;;;15.23;;
85104;SDS011;75457;53.198;45.008;2024-03-02T07:52:09;36.88;;;13.15;;
85104;SDS011;75457;53.198;45.008;2024-03-02T07:54:35;28.60;;;13.50;;
85104;SDS011;75457;53.198;45.008;2024-03-02T07:57:01;34.78;;;12.05;;
85104;SDS011;75457;53.198;45.008;2024-03-02T07:59:26;31.05;;;14.32;;
85104;SDS011;75457;53.198;45.008;2024-03-02T08:01:53;30.33;;;12.77;;
85104;SDS011;75457;53.198;45.008;2024-03-02T08:04:19;30.23;;;12.00;;
85104;SDS011;75457;53.198;45.008;2024-03-02T08:06:45;29.42;;;12.25;;
85104;SDS011;75457;53.198;45.008;2024-03-02T08:09:10;29.55;;;12.98;;
85104;SDS011;75457;53.198;45.008;2024-03-02T08:11:36;31.77;;;12.07;;
85104;SDS011;75457;53.198;45.008;2024-03-02T08:14:01;27.27;;;10.88;;
85104;SDS011;75457;53.198;45.008;2024-03-02T08:16:27;31.65;;;11.23;;
85104;SDS011;75457;53.198;45.008;2024-03-02T08:18:54;30.13;;;11.52;;
85104;SDS011;75457;53.198;45.008;2024-03-02T08:21:19;33.63;;;12.75;;
85104;SDS011;75457;53.198;45.008;2024-03-02T08:23:45;27.83;;;12.05;;
85104;SDS011;75457;53.198;45.008;2024-03-02T08:26:11;25.60;;;10.75;;
85104;SDS011;75457;53.198;45.008;2024-03-02T08:28:37;27.00;;;11.05;;
85104;SDS011;75457;53.198;45.008;2024-03-02T08:31:02;33.58;;;11.38;;
85104;SDS011;75457;53.198;45.008;2024-03-02T08:33:28;31.73;;;11.70;;
85104;SDS011;75457;53.198;45.008;2024-03-02T08:35:55;22.92;;;10.13;;
85104;SDS011;75457;53.198;45.008;2024-03-02T08:38:21;28.63;;;10.05;;
85104;SDS011;75457;53.198;45.008;2024-03-02T08:40:47;23.90;;;10.85;;
85104;SDS011;75457;53.198;45.008;2024-03-02T08:43:12;31.15;;;11.38;;
85104;SDS011;75457;53.198;45.008;2024-03-02T08:45:38;21.80;;;10.50;;
85104;SDS011;75457;53.198;45.008;2024-03-02T08:48:05;24.20;;;9.38;;
85104;SDS011;75457;53.198;45.008;2024-03-02T08:50:32;36.63;;;11.27;;
85104;SDS011;75457;53.198;45.008;2024-03-02T08:52:59;19.58;;;9.30;;
85104;SDS011;75457;53.198;45.008;2024-03-02T08:55:24;22.52;;;10.23;;
85104;SDS011;75457;53.198;45.008;2024-03-02T08:57:50;26.58;;;9.68;;
85104;SDS011;75457;53.198;45.008;2024-03-02T09:00:15;25.52;;;7.95;;
85104;SDS011;75457;53.198;45.008;2024-03-02T09:02:41;24.83;;;8.02;;
85104;SDS011;75457;53.198;45.008;2024-03-02T09:05:08;24.67;;;8.23;;
85104;SDS011;75457;53.198;45.008;2024-03-02T09:07:34;20.38;;;8.00;;
85104;SDS011;75457;53.198;45.008;2024-03-02T09:10:00;18.25;;;7.13;;
85104;SDS011;75457;53.198;45.008;2024-03-02T09:12:26;13.93;;;7.80;;
85104;SDS011;75457;53.198;45.008;2024-03-02T09:14:52;17.15;;;5.57;;
85104;SDS011;75457;53.198;45.008;2024-03-02T09:17:17;15.38;;;7.43;;
85104;SDS011;75457;53.198;45.008;2024-03-02T09:19:43;23.45;;;6.25;;
85104;SDS011;75457;53.198;45.008;2024-03-02T09:22:08;19.40;;;5.82;;
85104;SDS011;75457;53.198;45.008;2024-03-02T09:24:34;15.95;;;6.57;;
85104;SDS011;75457;53.198;45.008;2024-03-02T09:27:01;16.20;;;6.22;;
85104;SDS011;75457;53.198;45.008;2024-03-02T09:29:26;22.83;;;6.55;;
85104;SDS011;75457;53.198;45.008;2024-03-02T09:31:52;18.75;;;5.65;;
85104;SDS011;75457;53.198;45.008;2024-03-02T09:34:17;17.80;;;6.72;;
85104;SDS011;75457;53.198;45.008;2024-03-02T09:36:43;20.38;;;7.20;;
85104;SDS011;75457;53.198;45.008;2024-03-02T09:39:09;15.77;;;6.80;;
85104;SDS011;75457;53.198;45.008;2024-03-02T09:41:34;17.27;;;7.13;;
85104;SDS011;75457;53.198;45.008;2024-03-02T09:44:02;15.98;;;7.13;;
85104;SDS011;75457;53.198;45.008;2024-03-02T09:46:32;18.20;;;7.10;;
85104;SDS011;75457;53.198;45.008;2024-03-02T09:48:57;14.27;;;6.05;;
85104;SDS011;75457;53.198;45.008;2024-03-02T09:51:23;18.55;;;6.43;;
85104;SDS011;75457;53.198;45.008;2024-03-02T09:53:49;21.13;;;6.95;;
85104;SDS011;75457;53.198;45.008;2024-03-02T09:56:15;24.70;;;7.60;;
85104;SDS011;75457;53.198;45.008;2024-03-02T09:58:41;17.65;;;6.90;;
85104;SDS011;75457;53.198;45.008;2024-03-02T10:01:08;18.98;;;6.63;;
85104;SDS011;75457;53.198;45.008;2024-03-02T10:03:33;14.13;;;6.38;;
85104;SDS011;75457;53.198;45.008;2024-03-02T10:08:46;14.73;;;6.93;;
85104;SDS011;75457;53.198;45.008;2024-03-02T10:11:14;19.85;;;6.30;;
85104;SDS011;75457;53.198;45.008;2024-03-02T10:13:51;19.63;;;7.43;;
85104;SDS011;75457;53.198;45.008;2024-03-02T10:16:18;15.65;;;7.63;;
85104;SDS011;75457;53.198;45.008;2024-03-02T10:18:43;19.13;;;6.75;;
85104;SDS011;75457;53.198;45.008;2024-03-02T10:21:13;17.63;;;6.53;;
85104;SDS011;75457;53.198;45.008;2024-03-02T10:23:38;18.08;;;7.65;;
85104;SDS011;75457;53.198;45.008;2024-03-02T10:26:06;17.85;;;6.07;;
85104;SDS011;75457;53.198;45.008;2024-03-02T10:28:45;15.98;;;6.50;;
85104;SDS011;75457;53.198;45.008;2024-03-02T10:31:11;18.90;;;6.82;;
85104;SDS011;75457;53.198;45.008;2024-03-02T10:33:38;18.30;;;7.75;;
85104;SDS011;75457;53.198;45.008;2024-03-02T10:36:05;16.00;;;6.97;;
85104;SDS011;75457;53.198;45.008;2024-03-02T10:38:30;14.52;;;6.03;;
85104;SDS011;75457;53.198;45.008;2024-03-02T10:40:56;18.25;;;7.20;;
85104;SDS011;75457;53.198;45.008;2024-03-02T10:43:23;21.35;;;6.20;;
85104;SDS011;75457;53.198;45.008;2024-03-02T10:45:49;12.07;;;5.18;;
85104;SDS011;75457;53.198;45.008;2024-03-02T10:48:14;13.70;;;5.80;;
85104;SDS011;75457;53.198;45.008;2024-03-02T10:50:42;17.52;;;7.05;;
85104;SDS011;75457;53.198;45.008;2024-03-02T10:53:07;17.30;;;6.32;;
85104;SDS011;75457;53.198;45.008;2024-03-02T10:55:33;14.73;;;5.85;;
85104;SDS011;75457;53.198;45.008;2024-03-02T10:57:58;15.02;;;5.78;;
85104;SDS011;75457;53.198;45.008;2024-03-02T11:00:25;16.63;;;6.88;;
85104;SDS011;75457;53.198;45.008;2024-03-02T11:02:58;11.20;;;6.18;;
85104;SDS011;75457;53.198;45.008;2024-03-02T11:08:00;22.35;;;7.13;;
85104;SDS011;75457;53.198;45.008;2024-03-02T11:10:27;18.23;;;6.93;;
85104;SDS011;75457;53.198;45.008;2024-03-02T11:13:00;17.27;;;6.88;;
85104;SDS011;75457;53.198;45.008;2024-03-02T11:15:28;15.80;;;6.40;;
85104;SDS011;75457;53.198;45.008;2024-03-02T11:17:54;16.25;;;6.65;;
85104;SDS011;75457;53.198;45.008;2024-03-02T11:20:21;17.95;;;7.22;;
85104;SDS011;75457;53.198;45.008;2024-03-02T11:22:47;17.50;;;7.07;;
85104;SDS011;75457;53.198;45.008;2024-03-02T11:25:24;19.02;;;6.97;;
85104;SDS011;75457;53.198;45.008;2024-03-02T11:27:59;18.67;;;6.35;;
85104;SDS011;75457;53.198;45.008;2024-03-02T11:33:18;17.25;;;6.85;;
85104;SDS011;75457;53.198;45.008;2024-03-02T11:35:48;20.42;;;7.60;;
85104;SDS011;75457;53.198;45.008;2024-03-02T11:38:15;19.23;;;7.95;;
85104;SDS011;75457;53.198;45.008;2024-03-02T11:40:42;16.42;;;6.57;;
85104;SDS011;75457;53.198;45.008;2024-03-02T11:43:08;17.05;;;7.50;;
85104;SDS011;75457;53.198;45.008;2024-03-02T11:45:35;22.27;;;7.45;;
85104;SDS011;75457;53.198;45.008;2024-03-02T11:48:01;20.45;;;6.80;;
85104;SDS011;75457;53.198;45.008;2024-03-02T11:50:33;21.75;;;8.73;;
85104;SDS011;75457;53.198;45.008;2024-03-02T11:53:00;25.15;;;8.00;;
85104;SDS011;75457;53.198;45.008;2024-03-02T11:55:26;20.77;;;7.65;;
85104;SDS011;75457;53.198;45.008;2024-03-02T11:57:53;22.70;;;8.60;;
85104;SDS011;75457;53.198;45.008;2024-03-02T12:00:19;27.70;;;8.88;;
85104;SDS011;75457;53.198;45.008;2024-03-02T12:02:45;19.00;;;7.63;;
85104;SDS011;75457;53.198;45.008;2024-03-02T12:05:11;22.00;;;9.20;;
85104;SDS011;75457;53.198;45.008;2024-03-02T12:07:36;17.90;;;8.25;;
85104;SDS011;75457;53.198;45.008;2024-03-02T12:10:03;20.55;;;8.60;;
85104;SDS011;75457;53.198;45.008;2024-03-02T12:12:29;19.77;;;8.68;;
85104;SDS011;75457;53.198;45.008;2024-03-02T12:14:56;25.08;;;7.90;;
85104;SDS011;75457;53.198;45.008;2024-03-02T12:17:22;24.23;;;8.00;;
85104;SDS011;75457;53.198;45.008;2024-03-02T12:19:47;16.58;;;7.18;;
85104;SDS011;75457;53.198;45.008;2024-03-02T12:22:13;22.02;;;7.93;;
85104;SDS011;75457;53.198;45.008;2024-03-02T12:24:39;20.52;;;8.32;;
85104;SDS011;75457;53.198;45.008;2024-03-02T12:27:06;25.15;;;8.32;;
85104;SDS011;75457;53.198;45.008;2024-03-02T12:29:32;22.10;;;7.68;;
85104;SDS011;75457;53.198;45.008;2024-03-02T12:32:00;18.42;;;6.72;;
85104;SDS011;75457;53.198;45.008;2024-03-02T12:34:26;19.10;;;7.35;;
85104;SDS011;75457;53.198;45.008;2024-03-02T12:36:51;19.27;;;7.90;;
85104;SDS011;75457;53.198;45.008;2024-03-02T12:39:17;19.08;;;7.80;;
85104;SDS011;75457;53.198;45.008;2024-03-02T12:41:43;21.13;;;9.18;;
85104;SDS011;75457;53.198;45.008;2024-03-02T12:44:09;19.73;;;8.10;;
85104;SDS011;75457;53.198;45.008;2024-03-02T12:46:34;27.63;;;7.85;;
85104;SDS011;75457;53.198;45.008;2024-03-02T12:49:07;21.20;;;8.00;;
85104;SDS011;75457;53.198;45.008;2024-03-02T12:51:33;25.42;;;8.20;;
85104;SDS011;75457;53.198;45.008;2024-03-02T12:54:00;23.50;;;8.07;;
85104;SDS011;75457;53.198;45.008;2024-03-02T12:56:26;25.30;;;9.40;;
85104;SDS011;75457;53.198;45.008;2024-03-02T12:58:53;19.75;;;7.55;;
85104;SDS011;75457;53.198;45.008;2024-03-02T13:01:19;17.95;;;8.45;;
85104;SDS011;75457;53.198;45.008;2024-03-02T13:03:44;21.40;;;8.35;;
85104;SDS011;75457;53.198;45.008;2024-03-02T13:06:11;22.48;;;8.40;;
85104;SDS011;75457;53.198;45.008;2024-03-02T13:08:36;21.40;;;8.10;;
85104;SDS011;75457;53.198;45.008;2024-03-02T13:11:03;18.20;;;8.40;;
85104;SDS011;75457;53.198;45.008;2024-03-02T13:13:30;27.70;;;10.10;;
85104;SDS011;75457;53.198;45.008;2024-03-02T13:15:56;25.25;;;8.93;;
85104;SDS011;75457;53.198;45.008;2024-03-02T13:18:21;21.77;;;9.70;;
85104;SDS011;75457;53.198;45.008;2024-03-02T13:20:47;16.83;;;8.63;;
85104;SDS011;75457;53.198;45.008;2024-03-02T13:23:14;22.25;;;10.60;;
85104;SDS011;75457;53.198;45.008;2024-03-02T13:25:39;20.50;;;9.75;;
85104;SDS011;75457;53.198;45.008;2024-03-02T13:28:05;25.55;;;9.10;;
85104;SDS011;75457;53.198;45.008;2024-03-02T13:30:31;21.13;;;10.23;;
85104;SDS011;75457;53.198;45.008;2024-03-02T13:32:57;23.95;;;9.73;;
85104;SDS011;75457;53.198;45.008;2024-03-02T13:35:22;28.50;;;10.73;;
85104;SDS011;75457;53.198;45.008;2024-03-02T13:37:48;25.35;;;9.55;;
85104;SDS011;75457;53.198;45.008;2024-03-02T13:40:15;24.92;;;9.25;;
85104;SDS011;75457;53.198;45.008;2024-03-02T13:42:41;22.95;;;9.45;;
85104;SDS011;75457;53.198;45.008;2024-03-02T13:45:06;25.08;;;9.98;;
85104;SDS011;75457;53.198;45.008;2024-03-02T13:47:32;19.55;;;9.60;;
85104;SDS011;75457;53.198;45.008;2024-03-02T13:49:58;24.83;;;11.38;;
85104;SDS011;75457;53.198;45.008;2024-03-02T13:52:23;27.33;;;10.63;;
85104;SDS011;75457;53.198;45.008;2024-03-02T13:54:49;23.30;;;9.50;;
85104;SDS011;75457;53.198;45.008;2024-03-02T13:57:16;22.40;;;10.00;;
85104;SDS011;75457;53.198;45.008;2024-03-02T13:59:42;30.13;;;10.02;;
85104;SDS011;75457;53.198;45.008;2024-03-02T14:02:07;23.42;;;12.32;;
85104;SDS011;75457;53.198;45.008;2024-03-02T14:04:33;23.10;;;11.20;;
85104;SDS011;75457;53.198;45.008;2024-03-02T14:06:59;27.67;;;11.75;;
85104;SDS011;75457;53.198;45.008;2024-03-02T14:09:25;26.25;;;11.25;;
85104;SDS011;75457;53.198;45.008;2024-03-02T14:11:51;22.13;;;10.98;;
85104;SDS011;75457;53.198;45.008;2024-03-02T14:14:18;22.67;;;11.32;;
85104;SDS011;75457;53.198;45.008;2024-03-02T14:16:43;30.60;;;12.57;;
85104;SDS011;75457;53.198;45.008;2024-03-02T14:19:09;32.50;;;12.82;;
85104;SDS011;75457;53.198;45.008;2024-03-02T14:21:35;31.30;;;13.77;;
85104;SDS011;75457;53.198;45.008;2024-03-02T14:24:00;30.17;;;13.45;;
85104;SDS011;75457;53.198;45.008;2024-03-02T14:26:26;29.08;;;15.20;;
85104;SDS011;75457;53.198;45.008;2024-03-02T14:28:52;31.23;;;11.82;;
85104;SDS011;75457;53.198;45.008;2024-03-02T14:31:18;27.02;;;12.43;;
85104;SDS011;75457;53.198;45.008;2024-03-02T14:33:44;23.38;;;10.43;;
85104;SDS011;75457;53.198;45.008;2024-03-02T14:36:10;21.45;;;11.93;;
85104;SDS011;75457;53.198;45.008;2024-03-02T14:38:35;27.20;;;11.93;;
85104;SDS011;75457;53.198;45.008;2024-03-02T14:41:01;21.88;;;12.82;;
85104;SDS011;75457;53.198;45.008;2024-03-02T14:43:26;36.80;;;14.27;;
85104;SDS011;75457;53.198;45.008;2024-03-02T14:45:52;30.85;;;13.30;;
85104;SDS011;75457;53.198;45.008;2024-03-02T14:48:19;32.92;;;14.18;;
85104;SDS011;75457;53.198;45.008;2024-03-02T14:50:44;28.17;;;14.10;;
85104;SDS011;75457;53.198;45.008;2024-03-02T14:53:10;40.88;;;18.17;;
85104;SDS011;75457;53.198;45.008;2024-03-02T14:55:35;29.70;;;14.95;;
85104;SDS011;75457;53.198;45.008;2024-03-02T14:58:01;30.50;;;12.63;;
85104;SDS011;75457;53.198;45.008;2024-03-02T15:00:26;32.83;;;13.82;;
85104;SDS011;75457;53.198;45.008;2024-03-02T15:02:52;27.50;;;12.70;;
85104;SDS011;75457;53.198;45.008;2024-03-02T15:05:19;28.88;;;12.10;;
85104;SDS011;75457;53.198;45.008;2024-03-02T15:07:44;25.45;;;11.95;;
85104;SDS011;75457;53.198;45.008;2024-03-02T15:10:10;26.70;;;13.10;;
85104;SDS011;75457;53.198;45.008;2024-03-02T15:12:37;30.38;;;13.40;;
85104;SDS011;75457;53.198;45.008;2024-03-02T15:15:03;27.50;;;13.07;;
85104;SDS011;75457;53.198;45.008;2024-03-02T15:17:29;34.80;;;16.98;;
85104;SDS011;75457;53.198;45.008;2024-03-02T15:19:55;38.17;;;15.57;;
85104;SDS011;75457;53.198;45.008;2024-03-02T15:22:22;35.70;;;15.27;;
85104;SDS011;75457;53.198;45.008;2024-03-02T15:24:47;24.48;;;14.02;;
85104;SDS011;75457;53.198;45.008;2024-03-02T15:27:13;26.75;;;12.68;;
85104;SDS011;75457;53.198;45.008;2024-03-02T15:29:39;22.88;;;13.52;;
85104;SDS011;75457;53.198;45.008;2024-03-02T15:32:04;30.40;;;14.05;;
85104;SDS011;75457;53.198;45.008;2024-03-02T15:34:30;28.73;;;14.10;;
85104;SDS011;75457;53.198;45.008;2024-03-02T15:36:56;30.90;;;13.80;;
85104;SDS011;75457;53.198;45.008;2024-03-02T15:39:23;31.08;;;14.48;;
85104;SDS011;75457;53.198;45.008;2024-03-02T15:41:49;34.55;;;14.40;;
85104;SDS011;75457;53.198;45.008;2024-03-02T15:44:14;33.95;;;14.68;;
85104;SDS011;75457;53.198;45.008;2024-03-02T15:46:40;33.08;;;16.67;;
85104;SDS011;75457;53.198;45.008;2024-03-02T15:49:05;37.25;;;15.48;;
85104;SDS011;75457;53.198;45.008;2024-03-02T15:51:31;41.22;;;19.08;;
85104;SDS011;75457;53.198;45.008;2024-03-02T15:53:57;41.90;;;20.00;;
85104;SDS011;75457;53.198;45.008;2024-03-02T15:56:24;43.05;;;20.63;;
85104;SDS011;75457;53.198;45.008;2024-03-02T15:58:49;56.22;;;23.23;;
85104;SDS011;75457;53.198;45.008;2024-03-02T16:01:15;49.78;;;24.25;;
85104;SDS011;75457;53.198;45.008;2024-03-02T16:03:41;49.63;;;23.73;;
85104;SDS011;75457;53.198;45.008;2024-03-02T16:06:06;50.03;;;22.48;;
85104;SDS011;75457;53.198;45.008;2024-03-02T16:08:32;49.08;;;24.10;;
85104;SDS011;75457;53.198;45.008;2024-03-02T16:10:57;51.25;;;23.50;;
85104;SDS011;75457;53.198;45.008;2024-03-02T16:13:24;55.85;;;23.83;;
85104;SDS011;75457;53.198;45.008;2024-03-02T16:15:50;58.53;;;23.52;;
85104;SDS011;75457;53.198;45.008;2024-03-02T16:18:15;57.28;;;24.45;;
85104;SDS011;75457;53.198;45.008;2024-03-02T16:20:41;56.58;;;23.27;;